sensor_id;sensor_type;location;lat;lon;timestamp;P1;durP1;ratioP1;P2;durP2;ratioP2
36475;SDS011;56615;42.682;23.364;2022-07-29T00:01:20;11.60;;;8.35;;
36475;SDS011;56615;42.682;23.364;2022-07-29T00:03:45;11.07;;;7.47;;
36475;SDS011;56615;42.682;23.364;2022-07-29T00:06:11;12.55;;;7.93;;
36475;SDS011;56615;42.682;23.364;2022-07-29T00:08:36;11.27;;;8.18;;
36475;SDS011;56615;42.682;23.364;2022-07-29T00:11:02;10.95;;;8.02;;
36475;SDS011;56615;42.682;23.364;2022-07-29T00:13:27;14.35;;;8.23;;
36475;SDS011;56615;42.682;23.364;2022-07-29T00:15:53;11.70;;;7.97;;
36475;SDS011;56615;42.682;23.364;2022-07-29T00:18:19;10.45;;;7.43;;
36475;SDS011;56615;42.682;23.364;2022-07-29T00:20:44;14.20;;;7.80;;
36475;SDS011;56615;42.682;23.364;2022-07-29T00:23:10;11.48;;;8.38;;
36475;SDS011;56615;42.682;23.364;2022-07-29T00:25:35;10.68;;;7.45;;
36475;SDS011;56615;42.682;23.364;2022-07-29T00:28:00;12.07;;;7.57;;
36475;SDS011;56615;42.682;23.364;2022-07-29T00:30:26;13.23;;;8.20;;
36475;SDS011;56615;42.682;23.364;2022-07-29T00:32:51;12.18;;;7.63;;
36475;SDS011;56615;42.682;23.364;2022-07-29T00:35:17;11.20;;;7.28;;
36475;SDS011;56615;42.682;23.364;2022-07-29T00:38:01;12.02;;;8.18;;
36475;SDS011;56615;42.682;23.364;2022-07-29T00:40:26;12.70;;;8.15;;
36475;SDS011;56615;42.682;23.364;2022-07-29T00:42:52;11.90;;;7.63;;
36475;SDS011;56615;42.682;23.364;2022-07-29T00:45:19;12.75;;;7.85;;
36475;SDS011;56615;42.682;23.364;2022-07-29T00:47:44;13.00;;;7.65;;
36475;SDS011;56615;42.682;23.364;2022-07-29T00:50:10;12.88;;;8.20;;
36475;SDS011;56615;42.682;23.364;2022-07-29T00:52:40;12.85;;;8.13;;
36475;SDS011;56615;42.682;23.364;2022-07-29T00:55:08;12.20;;;8.25;;
36475;SDS011;56615;42.682;23.364;2022-07-29T00:57:36;12.35;;;8.75;;
36475;SDS011;56615;42.682;23.364;2022-07-29T01:00:03;13.60;;;8.80;;
36475;SDS011;56615;42.682;23.364;2022-07-29T01:02:29;13.38;;;7.85;;
36475;SDS011;56615;42.682;23.364;2022-07-29T01:04:55;12.23;;;8.02;;
36475;SDS011;56615;42.682;23.364;2022-07-29T01:07:22;12.10;;;8.65;;
36475;SDS011;56615;42.682;23.364;2022-07-29T01:09:47;14.50;;;8.90;;
36475;SDS011;56615;42.682;23.364;2022-07-29T01:12:14;15.00;;;9.82;;
36475;SDS011;56615;42.682;23.364;2022-07-29T01:14:42;13.63;;;10.60;;
36475;SDS011;56615;42.682;23.364;2022-07-29T01:17:12;13.20;;;9.38;;
36475;SDS011;56615;42.682;23.364;2022-07-29T01:30:06;17.98;;;11.95;;
36475;SDS011;56615;42.682;23.364;2022-07-29T01:32:33;14.88;;;10.82;;
36475;SDS011;56615;42.682;23.364;2022-07-29T01:37:50;18.98;;;12.30;;
36475;SDS011;56615;42.682;23.364;2022-07-29T01:42:55;17.83;;;12.40;;
36475;SDS011;56615;42.682;23.364;2022-07-29T01:48:18;16.65;;;12.85;;
36475;SDS011;56615;42.682;23.364;2022-07-29T01:50:47;17.20;;;12.55;;
36475;SDS011;56615;42.682;23.364;2022-07-29T01:53:15;19.02;;;12.80;;
36475;SDS011;56615;42.682;23.364;2022-07-29T01:55:46;18.33;;;12.82;;
36475;SDS011;56615;42.682;23.364;2022-07-29T01:58:12;17.40;;;12.25;;
36475;SDS011;56615;42.682;23.364;2022-07-29T02:00:38;16.92;;;12.80;;
36475;SDS011;56615;42.682;23.364;2022-07-29T02:03:09;19.38;;;13.75;;
36475;SDS011;56615;42.682;23.364;2022-07-29T02:05:40;17.58;;;12.40;;
36475;SDS011;56615;42.682;23.364;2022-07-29T02:08:06;19.50;;;12.48;;
36475;SDS011;56615;42.682;23.364;2022-07-29T02:10:33;17.83;;;12.35;;
36475;SDS011;56615;42.682;23.364;2022-07-29T02:13:00;16.02;;;11.70;;
36475;SDS011;56615;42.682;23.364;2022-07-29T02:15:29;18.38;;;12.43;;
36475;SDS011;56615;42.682;23.364;2022-07-29T02:17:58;17.73;;;12.07;;
36475;SDS011;56615;42.682;23.364;2022-07-29T02:20:26;17.48;;;12.13;;
36475;SDS011;56615;42.682;23.364;2022-07-29T02:22:52;17.83;;;12.00;;
36475;SDS011;56615;42.682;23.364;2022-07-29T02:25:20;17.60;;;11.85;;
36475;SDS011;56615;42.682;23.364;2022-07-29T02:27:46;17.13;;;12.00;;
36475;SDS011;56615;42.682;23.364;2022-07-29T02:30:13;16.05;;;11.63;;
36475;SDS011;56615;42.682;23.364;2022-07-29T02:32:39;15.60;;;11.80;;
36475;SDS011;56615;42.682;23.364;2022-07-29T02:35:05;15.98;;;12.05;;
36475;SDS011;56615;42.682;23.364;2022-07-29T02:37:32;17.40;;;11.75;;
36475;SDS011;56615;42.682;23.364;2022-07-29T02:39:58;16.73;;;12.95;;
36475;SDS011;56615;42.682;23.364;2022-07-29T02:42:24;17.52;;;12.68;;
36475;SDS011;56615;42.682;23.364;2022-07-29T02:44:51;17.58;;;12.52;;
36475;SDS011;56615;42.682;23.364;2022-07-29T02:47:21;18.15;;;12.35;;
36475;SDS011;56615;42.682;23.364;2022-07-29T02:52:52;17.90;;;10.65;;
36475;SDS011;56615;42.682;23.364;2022-07-29T02:55:25;15.65;;;10.63;;
36475;SDS011;56615;42.682;23.364;2022-07-29T02:58:02;14.40;;;10.05;;
36475;SDS011;56615;42.682;23.364;2022-07-29T03:00:31;15.73;;;10.10;;
36475;SDS011;56615;42.682;23.364;2022-07-29T03:03:00;16.63;;;10.38;;
36475;SDS011;56615;42.682;23.364;2022-07-29T03:05:29;14.73;;;9.98;;
36475;SDS011;56615;42.682;23.364;2022-07-29T03:07:55;12.63;;;9.50;;
36475;SDS011;56615;42.682;23.364;2022-07-29T03:10:25;15.45;;;10.00;;
36475;SDS011;56615;42.682;23.364;2022-07-29T03:12:51;16.92;;;10.50;;
36475;SDS011;56615;42.682;23.364;2022-07-29T03:15:18;16.73;;;10.30;;
36475;SDS011;56615;42.682;23.364;2022-07-29T03:17:44;18.30;;;11.70;;
36475;SDS011;56615;42.682;23.364;2022-07-29T03:20:11;17.13;;;11.32;;
36475;SDS011;56615;42.682;23.364;2022-07-29T03:22:41;18.58;;;11.45;;
36475;SDS011;56615;42.682;23.364;2022-07-29T03:25:14;17.08;;;11.38;;
36475;SDS011;56615;42.682;23.364;2022-07-29T03:27:42;17.33;;;10.65;;
36475;SDS011;56615;42.682;23.364;2022-07-29T03:30:08;16.00;;;11.57;;
36475;SDS011;56615;42.682;23.364;2022-07-29T03:32:35;16.10;;;11.88;;
36475;SDS011;56615;42.682;23.364;2022-07-29T03:35:00;16.98;;;12.10;;
36475;SDS011;56615;42.682;23.364;2022-07-29T03:37:26;17.83;;;11.40;;
36475;SDS011;56615;42.682;23.364;2022-07-29T03:39:52;15.23;;;11.10;;
36475;SDS011;56615;42.682;23.364;2022-07-29T03:42:20;15.90;;;10.77;;
36475;SDS011;56615;42.682;23.364;2022-07-29T03:44:47;17.98;;;11.10;;
36475;SDS011;56615;42.682;23.364;2022-07-29T03:47:13;15.75;;;11.10;;
36475;SDS011;56615;42.682;23.364;2022-07-29T03:49:40;15.20;;;11.27;;
36475;SDS011;56615;42.682;23.364;2022-07-29T03:52:06;15.18;;;10.00;;
36475;SDS011;56615;42.682;23.364;2022-07-29T03:54:31;13.93;;;10.27;;
36475;SDS011;56615;42.682;23.364;2022-07-29T03:56:58;15.93;;;10.23;;
36475;SDS011;56615;42.682;23.364;2022-07-29T03:59:24;16.45;;;9.63;;
36475;SDS011;56615;42.682;23.364;2022-07-29T04:01:51;14.25;;;9.88;;
36475;SDS011;56615;42.682;23.364;2022-07-29T04:04:16;15.35;;;10.57;;
36475;SDS011;56615;42.682;23.364;2022-07-29T04:06:43;17.70;;;11.30;;
36475;SDS011;56615;42.682;23.364;2022-07-29T04:09:09;20.45;;;10.75;;
36475;SDS011;56615;42.682;23.364;2022-07-29T04:11:36;16.17;;;10.57;;
36475;SDS011;56615;42.682;23.364;2022-07-29T04:14:05;17.45;;;9.52;;
36475;SDS011;56615;42.682;23.364;2022-07-29T04:16:31;17.20;;;9.13;;
36475;SDS011;56615;42.682;23.364;2022-07-29T04:18:58;14.35;;;9.15;;
36475;SDS011;56615;42.682;23.364;2022-07-29T04:21:24;12.90;;;8.55;;
36475;SDS011;56615;42.682;23.364;2022-07-29T04:23:49;15.15;;;8.30;;
36475;SDS011;56615;42.682;23.364;2022-07-29T04:26:18;12.23;;;7.80;;
36475;SDS011;56615;42.682;23.364;2022-07-29T04:28:44;15.25;;;9.30;;
36475;SDS011;56615;42.682;23.364;2022-07-29T04:31:11;12.32;;;8.55;;
36475;SDS011;56615;42.682;23.364;2022-07-29T04:33:37;13.65;;;7.32;;
36475;SDS011;56615;42.682;23.364;2022-07-29T04:36:04;14.40;;;7.60;;
36475;SDS011;56615;42.682;23.364;2022-07-29T04:38:30;10.70;;;6.78;;
36475;SDS011;56615;42.682;23.364;2022-07-29T04:40:55;9.50;;;6.35;;
36475;SDS011;56615;42.682;23.364;2022-07-29T04:43:21;10.93;;;6.72;;
36475;SDS011;56615;42.682;23.364;2022-07-29T04:45:46;14.27;;;6.75;;
36475;SDS011;56615;42.682;23.364;2022-07-29T04:48:12;11.43;;;6.30;;
36475;SDS011;56615;42.682;23.364;2022-07-29T04:50:37;12.93;;;7.47;;
36475;SDS011;56615;42.682;23.364;2022-07-29T04:56:00;11.10;;;6.25;;
36475;SDS011;56615;42.682;23.364;2022-07-29T04:58:25;11.60;;;6.85;;
36475;SDS011;56615;42.682;23.364;2022-07-29T05:00:51;11.32;;;6.25;;
36475;SDS011;56615;42.682;23.364;2022-07-29T05:03:18;10.68;;;6.45;;
36475;SDS011;56615;42.682;23.364;2022-07-29T05:05:43;13.82;;;6.63;;
36475;SDS011;56615;42.682;23.364;2022-07-29T05:08:09;10.80;;;6.30;;
36475;SDS011;56615;42.682;23.364;2022-07-29T05:10:36;9.40;;;6.25;;
36475;SDS011;56615;42.682;23.364;2022-07-29T05:13:06;10.88;;;5.75;;
36475;SDS011;56615;42.682;23.364;2022-07-29T05:15:34;12.90;;;6.30;;
36475;SDS011;56615;42.682;23.364;2022-07-29T05:18:01;10.55;;;5.47;;
36475;SDS011;56615;42.682;23.364;2022-07-29T05:20:26;11.05;;;6.20;;
36475;SDS011;56615;42.682;23.364;2022-07-29T05:22:57;10.95;;;5.45;;
36475;SDS011;56615;42.682;23.364;2022-07-29T05:25:27;11.60;;;5.63;;
36475;SDS011;56615;42.682;23.364;2022-07-29T05:27:53;11.45;;;4.95;;
36475;SDS011;56615;42.682;23.364;2022-07-29T05:30:20;8.52;;;5.25;;
36475;SDS011;56615;42.682;23.364;2022-07-29T05:32:46;9.63;;;4.95;;
36475;SDS011;56615;42.682;23.364;2022-07-29T05:35:15;10.05;;;4.63;;
36475;SDS011;56615;42.682;23.364;2022-07-29T05:37:41;9.93;;;4.40;;
36475;SDS011;56615;42.682;23.364;2022-07-29T05:40:07;7.28;;;4.30;;
36475;SDS011;56615;42.682;23.364;2022-07-29T05:42:34;7.53;;;4.55;;
36475;SDS011;56615;42.682;23.364;2022-07-29T05:45:00;8.07;;;3.97;;
36475;SDS011;56615;42.682;23.364;2022-07-29T05:47:25;7.90;;;3.83;;
36475;SDS011;56615;42.682;23.364;2022-07-29T05:49:51;7.20;;;4.00;;
36475;SDS011;56615;42.682;23.364;2022-07-29T05:52:17;8.48;;;4.25;;
36475;SDS011;56615;42.682;23.364;2022-07-29T05:54:42;6.22;;;4.00;;
36475;SDS011;56615;42.682;23.364;2022-07-29T05:57:09;8.90;;;4.10;;
36475;SDS011;56615;42.682;23.364;2022-07-29T05:59:43;9.70;;;4.32;;
36475;SDS011;56615;42.682;23.364;2022-07-29T06:02:09;7.68;;;4.30;;
36475;SDS011;56615;42.682;23.364;2022-07-29T06:04:38;10.35;;;4.70;;
36475;SDS011;56615;42.682;23.364;2022-07-29T06:07:06;7.90;;;4.38;;
36475;SDS011;56615;42.682;23.364;2022-07-29T06:09:33;6.65;;;3.78;;
36475;SDS011;56615;42.682;23.364;2022-07-29T06:12:23;9.00;;;4.68;;
36475;SDS011;56615;42.682;23.364;2022-07-29T06:14:49;9.88;;;4.47;;
36475;SDS011;56615;42.682;23.364;2022-07-29T06:17:16;8.93;;;4.35;;
36475;SDS011;56615;42.682;23.364;2022-07-29T06:19:43;8.75;;;4.65;;
36475;SDS011;56615;42.682;23.364;2022-07-29T06:22:14;9.93;;;4.10;;
36475;SDS011;56615;42.682;23.364;2022-07-29T06:24:49;10.52;;;4.50;;
36475;SDS011;56615;42.682;23.364;2022-07-29T06:27:56;10.20;;;3.70;;
36475;SDS011;56615;42.682;23.364;2022-07-29T06:31:19;8.10;;;3.97;;
36475;SDS011;56615;42.682;23.364;2022-07-29T06:34:50;8.90;;;4.20;;
36475;SDS011;56615;42.682;23.364;2022-07-29T06:38:36;9.60;;;3.88;;
36475;SDS011;56615;42.682;23.364;2022-07-29T06:41:08;9.32;;;4.05;;
36475;SDS011;56615;42.682;23.364;2022-07-29T06:43:51;7.28;;;4.28;;
36475;SDS011;56615;42.682;23.364;2022-07-29T06:46:17;7.22;;;3.83;;
36475;SDS011;56615;42.682;23.364;2022-07-29T06:48:46;6.00;;;3.55;;
36475;SDS011;56615;42.682;23.364;2022-07-29T06:51:16;7.22;;;3.28;;
36475;SDS011;56615;42.682;23.364;2022-07-29T06:53:42;6.40;;;3.00;;
36475;SDS011;56615;42.682;23.364;2022-07-29T06:56:32;5.85;;;3.55;;
36475;SDS011;56615;42.682;23.364;2022-07-29T06:59:03;7.22;;;3.38;;
36475;SDS011;56615;42.682;23.364;2022-07-29T07:01:30;7.45;;;3.40;;
36475;SDS011;56615;42.682;23.364;2022-07-29T07:03:55;8.68;;;3.30;;
36475;SDS011;56615;42.682;23.364;2022-07-29T07:06:21;4.97;;;3.20;;
36475;SDS011;56615;42.682;23.364;2022-07-29T07:08:48;6.38;;;3.22;;
36475;SDS011;56615;42.682;23.364;2022-07-29T07:11:15;7.32;;;3.05;;
36475;SDS011;56615;42.682;23.364;2022-07-29T07:13:43;6.43;;;3.13;;
36475;SDS011;56615;42.682;23.364;2022-07-29T07:16:09;5.63;;;3.25;;
36475;SDS011;56615;42.682;23.364;2022-07-29T07:18:41;8.23;;;3.20;;
36475;SDS011;56615;42.682;23.364;2022-07-29T07:21:12;6.30;;;3.08;;
36475;SDS011;56615;42.682;23.364;2022-07-29T07:23:39;6.65;;;3.05;;
36475;SDS011;56615;42.682;23.364;2022-07-29T07:26:08;7.47;;;3.08;;
36475;SDS011;56615;42.682;23.364;2022-07-29T07:28:36;6.28;;;3.20;;
36475;SDS011;56615;42.682;23.364;2022-07-29T07:31:03;8.10;;;2.90;;
36475;SDS011;56615;42.682;23.364;2022-07-29T07:33:28;7.05;;;2.85;;
36475;SDS011;56615;42.682;23.364;2022-07-29T07:35:56;6.45;;;2.85;;
36475;SDS011;56615;42.682;23.364;2022-07-29T07:38:21;5.07;;;3.10;;
36475;SDS011;56615;42.682;23.364;2022-07-29T07:40:49;4.35;;;2.90;;
36475;SDS011;56615;42.682;23.364;2022-07-29T07:43:15;4.55;;;2.80;;
36475;SDS011;56615;42.682;23.364;2022-07-29T07:45:41;5.95;;;2.72;;
36475;SDS011;56615;42.682;23.364;2022-07-29T07:48:06;4.13;;;2.67;;
36475;SDS011;56615;42.682;23.364;2022-07-29T07:50:35;4.65;;;2.90;;
36475;SDS011;56615;42.682;23.364;2022-07-29T07:53:00;12.65;;;3.20;;
36475;SDS011;56615;42.682;23.364;2022-07-29T07:55:27;7.88;;;2.92;;
36475;SDS011;56615;42.682;23.364;2022-07-29T07:57:53;5.78;;;2.85;;
36475;SDS011;56615;42.682;23.364;2022-07-29T08:00:19;5.10;;;3.10;;
36475;SDS011;56615;42.682;23.364;2022-07-29T08:02:45;4.00;;;3.00;;
36475;SDS011;56615;42.682;23.364;2022-07-29T08:05:12;6.78;;;3.05;;
36475;SDS011;56615;42.682;23.364;2022-07-29T08:07:41;5.95;;;2.83;;
36475;SDS011;56615;42.682;23.364;2022-07-29T08:10:10;4.55;;;2.83;;
36475;SDS011;56615;42.682;23.364;2022-07-29T08:12:36;5.70;;;3.17;;
36475;SDS011;56615;42.682;23.364;2022-07-29T08:15:01;3.90;;;2.60;;
36475;SDS011;56615;42.682;23.364;2022-07-29T08:17:27;6.60;;;2.75;;
36475;SDS011;56615;42.682;23.364;2022-07-29T08:20:04;7.32;;;2.72;;
36475;SDS011;56615;42.682;23.364;2022-07-29T08:22:32;5.85;;;3.08;;
36475;SDS011;56615;42.682;23.364;2022-07-29T08:24:58;4.60;;;2.70;;
36475;SDS011;56615;42.682;23.364;2022-07-29T08:29:58;4.70;;;2.58;;
36475;SDS011;56615;42.682;23.364;2022-07-29T08:32:24;7.80;;;2.83;;
36475;SDS011;56615;42.682;23.364;2022-07-29T08:35:01;6.15;;;3.00;;
36475;SDS011;56615;42.682;23.364;2022-07-29T08:37:34;6.80;;;2.70;;
36475;SDS011;56615;42.682;23.364;2022-07-29T08:40:00;6.43;;;2.97;;
36475;SDS011;56615;42.682;23.364;2022-07-29T08:42:25;3.35;;;2.58;;
36475;SDS011;56615;42.682;23.364;2022-07-29T08:44:51;6.95;;;2.65;;
36475;SDS011;56615;42.682;23.364;2022-07-29T08:47:16;3.33;;;2.60;;
36475;SDS011;56615;42.682;23.364;2022-07-29T08:49:42;4.60;;;2.70;;
36475;SDS011;56615;42.682;23.364;2022-07-29T08:52:10;7.25;;;2.72;;
36475;SDS011;56615;42.682;23.364;2022-07-29T08:54:36;4.40;;;2.67;;
36475;SDS011;56615;42.682;23.364;2022-07-29T08:57:04;6.13;;;3.03;;
36475;SDS011;56615;42.682;23.364;2022-07-29T08:59:30;4.40;;;2.80;;
36475;SDS011;56615;42.682;23.364;2022-07-29T09:01:56;5.82;;;2.63;;
36475;SDS011;56615;42.682;23.364;2022-07-29T09:04:24;3.75;;;2.78;;
36475;SDS011;56615;42.682;23.364;2022-07-29T09:06:51;4.75;;;2.72;;
36475;SDS011;56615;42.682;23.364;2022-07-29T09:09:17;7.90;;;2.60;;
36475;SDS011;56615;42.682;23.364;2022-07-29T09:11:44;6.03;;;2.53;;
36475;SDS011;56615;42.682;23.364;2022-07-29T09:14:11;5.95;;;2.70;;
36475;SDS011;56615;42.682;23.364;2022-07-29T09:19:20;4.10;;;2.47;;
36475;SDS011;56615;42.682;23.364;2022-07-29T09:21:50;5.32;;;3.10;;
36475;SDS011;56615;42.682;23.364;2022-07-29T09:24:45;7.07;;;3.40;;
36475;SDS011;56615;42.682;23.364;2022-07-29T09:28:12;6.32;;;2.97;;
36475;SDS011;56615;42.682;23.364;2022-07-29T09:30:55;6.43;;;2.88;;
36475;SDS011;56615;42.682;23.364;2022-07-29T09:33:23;6.65;;;3.40;;
36475;SDS011;56615;42.682;23.364;2022-07-29T09:35:59;6.35;;;3.47;;
36475;SDS011;56615;42.682;23.364;2022-07-29T09:38:29;6.32;;;3.30;;
36475;SDS011;56615;42.682;23.364;2022-07-29T09:40:56;7.05;;;3.38;;
36475;SDS011;56615;42.682;23.364;2022-07-29T09:43:27;6.25;;;3.22;;
36475;SDS011;56615;42.682;23.364;2022-07-29T09:45:54;4.45;;;2.85;;
36475;SDS011;56615;42.682;23.364;2022-07-29T09:48:24;6.18;;;2.70;;
36475;SDS011;56615;42.682;23.364;2022-07-29T09:50:50;5.35;;;2.90;;
36475;SDS011;56615;42.682;23.364;2022-07-29T09:59:37;4.80;;;2.80;;
36475;SDS011;56615;42.682;23.364;2022-07-29T10:03:06;5.15;;;3.08;;
36475;SDS011;56615;42.682;23.364;2022-07-29T10:10:09;5.45;;;2.80;;
36475;SDS011;56615;42.682;23.364;2022-07-29T10:29:38;5.63;;;3.40;;
36475;SDS011;56615;42.682;23.364;2022-07-29T10:46:34;5.70;;;2.90;;
36475;SDS011;56615;42.682;23.364;2022-07-29T10:59:29;5.78;;;3.30;;
36475;SDS011;56615;42.682;23.364;2022-07-29T11:06:03;7.18;;;2.85;;
36475;SDS011;56615;42.682;23.364;2022-07-29T11:12:50;4.97;;;3.30;;
36475;SDS011;56615;42.682;23.364;2022-07-29T11:15:22;4.70;;;3.28;;
36475;SDS011;56615;42.682;23.364;2022-07-29T11:18:34;3.83;;;2.92;;
36475;SDS011;56615;42.682;23.364;2022-07-29T11:21:39;6.10;;;3.40;;
36475;SDS011;56615;42.682;23.364;2022-07-29T11:24:20;7.13;;;3.40;;
36475;SDS011;56615;42.682;23.364;2022-07-29T11:30:09;4.47;;;3.30;;
36475;SDS011;56615;42.682;23.364;2022-07-29T11:32:58;8.10;;;3.65;;
36475;SDS011;56615;42.682;23.364;2022-07-29T11:35:25;5.70;;;3.35;;
36475;SDS011;56615;42.682;23.364;2022-07-29T11:43:58;5.95;;;3.45;;
36475;SDS011;56615;42.682;23.364;2022-07-29T11:49:20;5.00;;;3.50;;
36475;SDS011;56615;42.682;23.364;2022-07-29T11:52:14;5.82;;;3.65;;
36475;SDS011;56615;42.682;23.364;2022-07-29T11:54:42;5.68;;;3.20;;
36475;SDS011;56615;42.682;23.364;2022-07-29T11:57:20;5.70;;;3.58;;
36475;SDS011;56615;42.682;23.364;2022-07-29T11:59:50;6.15;;;3.58;;
36475;SDS011;56615;42.682;23.364;2022-07-29T12:02:16;5.35;;;3.45;;
36475;SDS011;56615;42.682;23.364;2022-07-29T12:04:48;7.53;;;3.30;;
36475;SDS011;56615;42.682;23.364;2022-07-29T12:10:30;5.97;;;3.78;;
36475;SDS011;56615;42.682;23.364;2022-07-29T12:13:00;5.93;;;3.72;;
36475;SDS011;56615;42.682;23.364;2022-07-29T12:15:34;6.55;;;3.40;;
36475;SDS011;56615;42.682;23.364;2022-07-29T12:18:21;5.35;;;3.60;;
36475;SDS011;56615;42.682;23.364;2022-07-29T12:21:00;6.82;;;3.92;;
36475;SDS011;56615;42.682;23.364;2022-07-29T12:23:37;8.73;;;4.15;;
36475;SDS011;56615;42.682;23.364;2022-07-29T12:26:13;6.28;;;3.67;;
36475;SDS011;56615;42.682;23.364;2022-07-29T12:28:41;6.28;;;4.20;;
36475;SDS011;56615;42.682;23.364;2022-07-29T12:31:30;7.35;;;3.50;;
36475;SDS011;56615;42.682;23.364;2022-07-29T12:33:57;9.05;;;4.07;;
36475;SDS011;56615;42.682;23.364;2022-07-29T12:36:40;8.02;;;4.30;;
36475;SDS011;56615;42.682;23.364;2022-07-29T12:39:36;6.90;;;4.32;;
36475;SDS011;56615;42.682;23.364;2022-07-29T12:45:37;5.75;;;3.85;;
36475;SDS011;56615;42.682;23.364;2022-07-29T12:48:10;7.35;;;4.10;;
36475;SDS011;56615;42.682;23.364;2022-07-29T12:50:51;6.05;;;4.07;;
36475;SDS011;56615;42.682;23.364;2022-07-29T12:53:29;8.88;;;4.38;;
36475;SDS011;56615;42.682;23.364;2022-07-29T12:56:02;7.20;;;4.38;;
36475;SDS011;56615;42.682;23.364;2022-07-29T12:58:30;8.75;;;4.30;;
36475;SDS011;56615;42.682;23.364;2022-07-29T13:01:13;6.57;;;4.13;;
36475;SDS011;56615;42.682;23.364;2022-07-29T13:08:59;8.30;;;4.10;;
36475;SDS011;56615;42.682;23.364;2022-07-29T13:11:28;9.02;;;4.63;;
36475;SDS011;56615;42.682;23.364;2022-07-29T13:17:40;6.68;;;3.92;;
36475;SDS011;56615;42.682;23.364;2022-07-29T13:20:25;6.93;;;4.50;;
36475;SDS011;56615;42.682;23.364;2022-07-29T13:22:59;8.07;;;4.10;;
36475;SDS011;56615;42.682;23.364;2022-07-29T13:25:30;6.50;;;4.45;;
36475;SDS011;56615;42.682;23.364;2022-07-29T13:27:58;7.13;;;4.15;;
36475;SDS011;56615;42.682;23.364;2022-07-29T13:32:54;8.05;;;4.10;;
36475;SDS011;56615;42.682;23.364;2022-07-29T13:35:24;5.93;;;3.85;;
36475;SDS011;56615;42.682;23.364;2022-07-29T13:37:55;7.60;;;4.13;;
36475;SDS011;56615;42.682;23.364;2022-07-29T13:40:21;5.60;;;3.97;;
36475;SDS011;56615;42.682;23.364;2022-07-29T13:45:53;6.18;;;3.65;;
36475;SDS011;56615;42.682;23.364;2022-07-29T13:48:36;6.93;;;3.90;;
36475;SDS011;56615;42.682;23.364;2022-07-29T14:12:05;6.97;;;3.90;;
36475;SDS011;56615;42.682;23.364;2022-07-29T14:15:11;7.80;;;4.45;;
36475;SDS011;56615;42.682;23.364;2022-07-29T14:18:18;7.88;;;4.30;;
36475;SDS011;56615;42.682;23.364;2022-07-29T14:21:57;13.38;;;10.48;;
36475;SDS011;56615;42.682;23.364;2022-07-29T14:25:27;6.78;;;4.15;;
36475;SDS011;56615;42.682;23.364;2022-07-29T14:28:16;7.90;;;4.47;;
36475;SDS011;56615;42.682;23.364;2022-07-29T14:33:55;6.28;;;4.20;;
36475;SDS011;56615;42.682;23.364;2022-07-29T14:36:23;6.32;;;4.10;;
36475;SDS011;56615;42.682;23.364;2022-07-29T14:39:10;9.27;;;4.38;;
36475;SDS011;56615;42.682;23.364;2022-07-29T14:41:58;7.40;;;4.35;;
36475;SDS011;56615;42.682;23.364;2022-07-29T14:50:28;7.90;;;4.00;;
36475;SDS011;56615;42.682;23.364;2022-07-29T14:59:44;6.30;;;4.20;;
36475;SDS011;56615;42.682;23.364;2022-07-29T15:02:59;7.15;;;4.10;;
36475;SDS011;56615;42.682;23.364;2022-07-29T15:06:08;14.73;;;5.10;;
36475;SDS011;56615;42.682;23.364;2022-07-29T15:09:17;8.02;;;4.85;;
36475;SDS011;56615;42.682;23.364;2022-07-29T15:11:46;6.57;;;4.85;;
36475;SDS011;56615;42.682;23.364;2022-07-29T15:14:12;6.70;;;4.60;;
36475;SDS011;56615;42.682;23.364;2022-07-29T15:16:38;6.93;;;4.55;;
36475;SDS011;56615;42.682;23.364;2022-07-29T15:19:09;8.70;;;5.78;;
36475;SDS011;56615;42.682;23.364;2022-07-29T15:21:37;8.55;;;5.30;;
36475;SDS011;56615;42.682;23.364;2022-07-29T15:24:06;7.45;;;4.90;;
36475;SDS011;56615;42.682;23.364;2022-07-29T15:26:32;7.85;;;4.40;;
36475;SDS011;56615;42.682;23.364;2022-07-29T15:28:58;7.22;;;4.75;;
36475;SDS011;56615;42.682;23.364;2022-07-29T15:31:25;7.13;;;4.80;;
36475;SDS011;56615;42.682;23.364;2022-07-29T15:33:50;8.57;;;4.80;;
36475;SDS011;56615;42.682;23.364;2022-07-29T15:36:17;7.57;;;4.90;;
36475;SDS011;56615;42.682;23.364;2022-07-29T15:38:42;6.80;;;4.15;;
36475;SDS011;56615;42.682;23.364;2022-07-29T15:41:27;6.82;;;4.35;;
36475;SDS011;56615;42.682;23.364;2022-07-29T15:43:52;5.88;;;4.20;;
36475;SDS011;56615;42.682;23.364;2022-07-29T15:46:19;8.25;;;4.53;;
36475;SDS011;56615;42.682;23.364;2022-07-29T15:49:07;7.95;;;5.38;;
36475;SDS011;56615;42.682;23.364;2022-07-29T15:51:33;7.00;;;4.43;;
36475;SDS011;56615;42.682;23.364;2022-07-29T15:54:05;9.98;;;5.40;;
36475;SDS011;56615;42.682;23.364;2022-07-29T15:56:31;6.93;;;3.90;;
36475;SDS011;56615;42.682;23.364;2022-07-29T15:59:05;6.13;;;4.15;;
36475;SDS011;56615;42.682;23.364;2022-07-29T16:02:35;5.38;;;3.90;;
36475;SDS011;56615;42.682;23.364;2022-07-29T16:05:00;6.25;;;4.15;;
36475;SDS011;56615;42.682;23.364;2022-07-29T16:07:26;8.88;;;4.10;;
36475;SDS011;56615;42.682;23.364;2022-07-29T16:09:51;7.05;;;4.20;;
36475;SDS011;56615;42.682;23.364;2022-07-29T16:12:18;6.63;;;4.05;;
36475;SDS011;56615;42.682;23.364;2022-07-29T16:14:55;6.18;;;3.80;;
36475;SDS011;56615;42.682;23.364;2022-07-29T16:17:22;6.88;;;4.10;;
36475;SDS011;56615;42.682;23.364;2022-07-29T16:19:47;5.60;;;3.90;;
36475;SDS011;56615;42.682;23.364;2022-07-29T16:24:42;8.68;;;4.95;;
36475;SDS011;56615;42.682;23.364;2022-07-29T16:27:07;10.57;;;4.53;;
36475;SDS011;56615;42.682;23.364;2022-07-29T16:29:33;7.70;;;4.43;;
36475;SDS011;56615;42.682;23.364;2022-07-29T16:34:58;6.30;;;3.97;;
36475;SDS011;56615;42.682;23.364;2022-07-29T16:37:31;6.85;;;3.80;;
36475;SDS011;56615;42.682;23.364;2022-07-29T16:40:01;7.07;;;3.90;;
36475;SDS011;56615;42.682;23.364;2022-07-29T16:42:31;7.00;;;4.13;;
36475;SDS011;56615;42.682;23.364;2022-07-29T16:45:01;6.38;;;4.03;;
36475;SDS011;56615;42.682;23.364;2022-07-29T16:47:49;9.52;;;5.40;;
36475;SDS011;56615;42.682;23.364;2022-07-29T16:50:18;6.32;;;4.43;;
36475;SDS011;56615;42.682;23.364;2022-07-29T16:53:09;7.55;;;4.80;;
36475;SDS011;56615;42.682;23.364;2022-07-29T16:56:03;8.65;;;4.50;;
36475;SDS011;56615;42.682;23.364;2022-07-29T16:58:56;7.32;;;4.00;;
36475;SDS011;56615;42.682;23.364;2022-07-29T17:01:43;8.05;;;3.95;;
36475;SDS011;56615;42.682;23.364;2022-07-29T17:04:22;7.35;;;4.47;;
36475;SDS011;56615;42.682;23.364;2022-07-29T17:06:52;8.05;;;5.18;;
36475;SDS011;56615;42.682;23.364;2022-07-29T17:09:27;8.65;;;4.07;;
36475;SDS011;56615;42.682;23.364;2022-07-29T17:12:00;6.38;;;3.58;;
36475;SDS011;56615;42.682;23.364;2022-07-29T17:14:29;6.45;;;4.00;;
36475;SDS011;56615;42.682;23.364;2022-07-29T17:17:00;6.13;;;4.00;;
36475;SDS011;56615;42.682;23.364;2022-07-29T17:19:39;7.80;;;3.92;;
36475;SDS011;56615;42.682;23.364;2022-07-29T17:22:44;6.78;;;4.18;;
36475;SDS011;56615;42.682;23.364;2022-07-29T17:25:19;6.63;;;3.60;;
36475;SDS011;56615;42.682;23.364;2022-07-29T17:27:51;5.32;;;3.88;;
36475;SDS011;56615;42.682;23.364;2022-07-29T17:30:30;6.43;;;3.72;;
36475;SDS011;56615;42.682;23.364;2022-07-29T17:32:57;6.75;;;3.58;;
36475;SDS011;56615;42.682;23.364;2022-07-29T17:35:51;5.47;;;3.67;;
36475;SDS011;56615;42.682;23.364;2022-07-29T17:38:55;6.38;;;4.03;;
36475;SDS011;56615;42.682;23.364;2022-07-29T17:41:53;7.28;;;4.10;;
36475;SDS011;56615;42.682;23.364;2022-07-29T17:44:49;7.15;;;3.67;;